KMFD/MFD METAR and TAF weather

Enter ICAO airport designator
Station Type Date Time Source
KMFD METAR 2019/02/16 02:52 UTC NOAA

KMFD 160252Z 26005KT 10SM CLR M04/M07 A2992 RMK AO2 SLP147 T10441072 53017


Station Type Date Time Source
KMFD Decoded METAR 2019/02/16 02:52 UTC NOAA

LAHM MUNICIPAL AIRPORT, OH, United States (KMFD) 40-49N 082-31W 395M
Feb 15, 2019 - 09:52 PM EST / 2019.02.16 0252 UTC
Wind: from the W (260 degrees) at 6 MPH (5 KT):0
Visibility: 10 mile(s):0
Sky conditions: clear
Temperature: 24.1 F (-4.4 C)
Windchill: 17 F (-8 C):1
Dew Point: 19.0 F (-7.2 C)
Relative Humidity: 80%
Pressure (altimeter): 29.92 in. Hg (1013 hPa)
Pressure tendency: 0.05 inches (1.7 hPa) higher than three hours ago
ob: KMFD 160252Z 26005KT 10SM CLR M04/M07 A2992 RMK AO2 SLP147 T10441072 53017
cycle: 3

Station Type Date Time Source
KMFD TAF 2019/02/16 03:52 UTC NOAA

TAF
AMD KMFD 160250Z 1603/1624 27006KT P6SM SCT025 BKN200
FM160330 28006KT P6SM BKN025
FM160800 34006KT P6SM BKN025
FM161500 01007KT P6SM SCT025


Example: see airport list